Terminal Aerodrome Forecast
Issued by NWS Shreveport, LA

Home | Current Version | Previous Version | Text Only | Print | Product List | Glossary On
Versions: 1 2 3 4 5 6 7 8 9 10 11 12 13 14 15 16 17 18 19 20 21 22
000
FTUS44 KSHV 081050 CCA
TAFTYR
TAF COR
KTYR 081050Z 0811/0906 36013G24KT P6SM OVC006
      TEMPO 0811/0813 SCT008 BKN015
     FM081300 01013G20KT P6SM BKN025 OVC100
     FM081800 01013G20KT P6SM BKN050 OVC150
     FM090100 36006KT P6SM BKN150=

USA.gov is the U.S. government's official web portal to all federal, state and local government web resources and services.